DW6400 Weather Reports


Display with metric or nautical units.
time (UTC)temp
F
wind
direction
speed
MPH
gust
MPH
rain 1hr
in
rain 24hr
in
rain mn
in
humidity
%
barometer
mb
20180426183827 46 335 1.0 5.0 0.00 0.01 0.00 63 1021.0
20180426182327 45 335 2.0 5.0 0.00 0.01 0.00 65 1021.0
20180426180826 43 337 1.0 6.0 0.00 0.01 0.00 70 1021.1
20180426175325 43 338 0.0 3.0 0.00 0.01 0.00 75 1021.2
20180426173823 42 338 0.0 4.0 0.00 0.01 0.00 77 1021.3
20180426172322 41 338 1.0 3.0 0.00 0.01 0.00 77 1021.5
20180426170822 41 339 1.0 4.0 0.00 0.01 0.00 79 1021.5
20180426165320 40 342 2.0 8.0 0.00 0.09 0.00 77 1021.6
20180426163815 40 341 2.0 8.0 0.00 0.09 0.00 74 1021.5
20180426162314 41 336 2.0 8.0 0.00 0.09 0.00 69 1021.3
20180426160810 41 327 2.0 9.0 0.00 0.09 0.00 65 1021.1
20180426155313 41 326 4.0 6.0 0.00 0.17 0.00 66 1020.9
20180426153807 41 342 4.0 11.0 0.00 0.17 0.00 67 1020.7
20180426152309 41 337 6.0 12.0 0.00 0.17 0.00 69 1020.9
20180426150808 41 331 3.0 11.0 0.00 0.17 0.00 68 1020.7
20180426145302 41 333 3.0 8.0 0.00 0.17 0.00 67 1020.5
20180426143801 42 333 3.0 10.0 0.00 0.17 0.00 63 1020.5
20180426142301 42 340 2.0 6.0 0.00 0.17 0.00 62 1020.1
20180426140756 42 340 4.0 10.0 0.00 0.17 0.00 61 1020.1
20180426135251 42 338 3.0 10.0 0.00 0.17 0.00 60 1019.9
20180426133747 42 332 1.0 8.0 0.00 0.17 0.00 59 1019.7
20180426132246 42 324 3.0 10.0 0.00 0.17 0.00 57 1019.6
20180426130742 42 321 1.0 9.0 0.00 0.17 0.00 56 1019.2
20180426125239 42 340 2.0 8.0 0.00 0.17 0.00 54 1019.0
20180426123739 42 342 4.0 12.0 0.00 0.17 0.00 54 1018.9
20180426122237 42 328 5.0 10.0 0.00 0.17 0.00 54 1018.8
20180426120733 42 330 3.0 8.0 0.00 0.17 0.00 53 1018.8
20180426115229 43 340 2.0 9.0 0.00 0.17 0.00 53 1018.6
20180426113728 43 334 3.0 10.0 0.00 0.17 0.00 52 1018.5
20180426112227 43 328 4.0 10.0 0.00 0.17 0.00 50 1018.5
20180426110728 44 339 4.0 10.0 0.00 0.17 0.00 49 1018.4
20180426105226 44 335 4.0 15.0 0.00 0.17 0.00 49 1018.1
20180426103722 44 338 4.0 11.0 0.00 0.17 0.00 48 1017.8
20180426102220 45 336 6.0 11.0 0.00 0.17 0.00 47 1017.4
20180426100718 45 348 5.0 11.0 0.00 0.17 0.00 46 1017.0
20180426095219 45 333 4.0 9.0 0.00 0.17 0.00 45 1016.9
20180426093717 46 5 3.0 9.0 0.00 0.17 0.00 44 1016.7
20180426092215 46 335 5.0 12.0 0.00 0.17 0.00 45 1016.5
20180426090710 44 344 6.0 14.0 0.00 0.17 0.00 50 1015.8
20180426085207 40 144 0.0 3.0 0.00 0.17 0.00 58 1014.0
20180426083702 40 144 0.0 1.0 0.00 0.17 0.00 57 1014.2
20180426082205 40 144 0.0 0.0 0.00 0.17 0.00 55 1014.1
20180426080702 41 144 0.0 0.0 0.00 0.17 0.00 56 1014.0
20180426075158 41 144 0.0 1.0 0.00 0.17 0.00 54 1014.2
20180426073654 42 144 0.0 0.0 0.00 0.17 0.00 53 1014.4
20180426072156 42 144 0.0 2.0 0.00 0.17 0.00 52 1014.6
20180426070654 43 144 0.0 0.0 0.00 0.17 0.00 51 1014.3
20180426065150 43 144 0.0 0.0 0.00 0.17 0.00 50 1014.4
20180426063659 43 144 0.0 1.0 0.00 0.17 0.00 50 1014.3
20180426062146 44 144 0.0 7.0 0.00 0.17 0.00 51 1014.4
20180426060642 46 144 0.0 2.0 0.00 0.17 0.00 46 1014.6
20180426055143 47 144 0.0 2.0 0.00 0.17 0.17 43 1014.7
20180426053639 47 144 0.0 2.0 0.00 0.17 0.17 43 1015.0
20180426052136 47 144 1.0 3.0 0.00 0.17 0.17 43 1015.0
20180426050634 49 144 4.0 11.0 0.00 0.17 0.17 39 1015.1
20180426045133 50 140 5.0 12.0 0.00 0.17 0.17 38 1015.3
20180426043631 50 137 6.0 18.0 0.00 0.17 0.17 37 1015.5
20180426042129 50 139 7.0 13.0 0.00 0.17 0.17 36 1015.8
20180426040632 50 136 5.0 12.0 0.00 0.17 0.17 35 1016.1
20180426035127 50 140 5.0 10.0 0.00 0.17 0.17 36 1016.5
20180426033625 51 148 5.0 10.0 0.00 0.17 0.17 36 1016.8
20180426032129 50 146 5.0 10.0 0.00 0.17 0.17 39 1016.8
20180426030621 51 139 1.0 10.0 0.00 0.17 0.17 40 1016.9
20180426025122 53 139 2.0 15.0 0.00 0.17 0.17 35 1016.8
20180426023622 54 142 4.0 12.0 0.00 0.17 0.17 35 1016.8
20180426022119 53 143 5.0 9.0 0.00 0.17 0.17 37 1016.9
20180426020616 54 135 1.0 7.0 0.00 0.17 0.17 39 1017.0
20180426015116 56 134 1.0 5.0 0.00 0.17 0.17 37 1017.1
20180426013614 58 134 2.0 5.0 0.00 0.17 0.17 34 1017.2
20180426012116 60 133 3.0 7.0 0.00 0.17 0.17 31 1017.4
20180426010610 61 130 0.0 3.0 0.00 0.17 0.17 24 1017.7
20180426005111 62 130 0.0 3.0 0.00 0.18 0.17 16 1017.9
20180426003605 63 130 1.0 4.0 0.00 0.18 0.17 14 1018.1
20180426002108 64 130 1.0 3.0 0.00 0.18 0.17 14 1018.4
20180426000605 65 135 1.0 4.0 0.00 0.18 0.17 14 1018.7
20180425235104 67 136 1.0 4.0 0.00 0.18 0.17 13 1019.0
20180425233601 68 138 0.0 3.0 0.00 0.18 0.17 14 1019.3
20180425232057 68 138 0.0 4.0 0.00 0.18 0.17 14 1019.7
20180425230549 69 138 1.0 4.0 0.00 0.18 0.17 13 1020.0
20180425225048 68 138 0.0 3.0 0.00 0.18 0.17 13 1020.3
20180425223550 68 139 1.0 3.0 0.00 0.18 0.17 13 1020.5
20180425222043 68 142 0.0 3.0 0.00 0.18 0.17 14 1021.0
20180425220539 68 142 1.0 4.0 0.00 0.18 0.17 14 1021.5
20180425215040 67 142 1.0 7.0 0.00 0.19 0.17 14 1022.0
20180425213533 68 328 1.0 6.0 0.00 0.19 0.17 17 1022.5
20180425212030 66 324 0.0 3.0 0.00 0.19 0.17 18 1023.0
20180425210529 66 324 0.0 4.0 0.01 0.19 0.17 17 1023.6
20180425205025 65 324 0.0 4.0 0.01 0.20 0.17 17 1024.2
20180425203520 65 324 2.0 5.0 0.01 0.20 0.17 20 1024.7
20180425202017 63 53 2.0 5.0 0.01 0.20 0.17 24 1025.1
20180425200515 63 339 1.0 6.0 0.00 0.19 0.16 22 1025.3
20180425195009 62 338 1.0 3.0 0.00 0.20 0.16 24 1025.6
20180425193507 61 340 0.0 3.0 0.00 0.20 0.16 27 1026.0
20180425192003 58 340 0.0 4.0 0.00 0.20 0.16 31 1026.4
20180425190459 56 339 1.0 4.0 0.00 0.20 0.16 36 1026.8
20180425184954 56 339 1.0 4.0 0.00 0.20 0.16 41 1027.1